Time;durP1;ratioP1;P1;durP2;ratioP2;P2;SDS_P1;SDS_P2;PMS_P1;PMS_P2;Temp;Humidity;BMP_temperature;BMP_pressure;BME280_temperature;BME280_humidity;BME280_pressure;Samples;Min_cycle;Max_cycle;Signal;HPM_P1;HPM_P2
2023/12/02 00:00:27;;;;;;;;;;;17.70;48.80;;;;;;1540382;76;715;-62
2023/12/02 00:02:29;;;;;;;;;;;17.70;48.80;;;;;;1550782;75;1149;-63
2023/12/02 00:04:31;;;;;;;;;;;17.70;48.80;;;;;;1552656;75;667;-62
2023/12/02 00:06:33;;;;;;;;;;;17.70;48.80;;;;;;1550260;75;667;-62
2023/12/02 00:08:35;;;;;;;;;;;17.70;48.80;;;;;;1540278;76;804;-62
2023/12/02 00:10:37;;;;;;;;;;;17.70;48.80;;;;;;1553071;75;1534;-62
2023/12/02 00:12:39;;;;;;;;;;;17.70;48.70;;;;;;1530337;76;1134;-61
2023/12/02 00:14:41;;;;;;;;;;;17.70;48.80;;;;;;1543964;75;796;-61
2023/12/02 00:16:42;;;;;;;;;;;17.70;48.80;;;;;;1555349;75;1925;-62
2023/12/02 00:18:44;;;;;;;;;;;17.70;48.80;;;;;;1545691;76;759;-62
2023/12/02 00:20:46;;;;;;;;;;;17.70;48.80;;;;;;1556085;75;702;-59
2023/12/02 00:22:48;;;;;;;;;;;17.70;48.80;;;;;;1554317;75;1117;-60
2023/12/02 00:24:50;;;;;;;;;;;17.70;48.80;;;;;;1546841;75;1560;-59
2023/12/02 00:26:52;;;;;;;;;;;17.70;48.80;;;;;;1541999;75;773;-60
2023/12/02 00:28:54;;;;;;;;;;;17.60;48.70;;;;;;1550444;75;741;-59
2023/12/02 00:30:55;;;;;;;;;;;17.70;48.80;;;;;;1556597;75;779;-61
2023/12/02 00:32:57;;;;;;;;;;;17.70;48.80;;;;;;1548925;75;1139;-59
2023/12/02 00:34:59;;;;;;;;;;;17.70;48.90;;;;;;1553617;75;1932;-59
2023/12/02 00:37:01;;;;;;;;;;;17.60;48.70;;;;;;1553927;75;666;-59
2023/12/02 00:39:03;;;;;;;;;;;17.70;48.80;;;;;;1556210;75;1511;-60
2023/12/02 00:41:06;;;;;;;;;;;17.60;48.70;;;;;;1552184;75;741;-61
2023/12/02 00:43:08;;;;;;;;;;;17.70;48.80;;;;;;1535377;76;1142;-59
2023/12/02 00:45:10;;;;;;;;;;;17.70;48.80;;;;;;1545704;75;726;-61
2023/12/02 00:47:12;;;;;;;;;;;17.60;48.70;;;;;;1535375;75;815;-59
2023/12/02 00:49:13;;;;;;;;;;;17.60;48.70;;;;;;1529180;76;743;-61
2023/12/02 00:51:15;;;;;;;;;;;17.70;48.80;;;;;;1550199;75;798;-60
2023/12/02 00:53:17;;;;;;;;;;;17.60;48.60;;;;;;1559323;75;1562;-60
2023/12/02 00:55:19;;;;;;;;;;;17.60;48.70;;;;;;1557606;75;1943;-58
2023/12/02 00:57:21;;;;;;;;;;;17.70;48.80;;;;;;1545215;75;769;-59
2023/12/02 00:59:23;;;;;;;;;;;17.70;48.80;;;;;;1555515;75;813;-60
2023/12/02 01:01:25;;;;;;;;;;;17.70;48.80;;;;;;1540414;76;733;-59
2023/12/02 01:03:27;;;;;;;;;;;17.70;48.80;;;;;;1545648;75;1168;-59
2023/12/02 01:05:29;;;;;;;;;;;17.70;48.70;;;;;;1532990;76;670;-58
2023/12/02 01:07:32;;;;;;;;;;;17.70;48.80;;;;;;1544667;75;1540;-60
2023/12/02 01:09:33;;;;;;;;;;;17.70;48.80;;;;;;1537738;76;798;-60
2023/12/02 01:11:35;;;;;;;;;;;17.70;48.80;;;;;;1546108;75;808;-59
2023/12/02 01:13:37;;;;;;;;;;;17.70;48.80;;;;;;1546677;75;1125;-59
2023/12/02 01:15:39;;;;;;;;;;;17.70;48.80;;;;;;1550963;75;1935;-60
2023/12/02 01:17:41;;;;;;;;;;;17.60;48.60;;;;;;1555057;75;743;-58
2023/12/02 01:19:44;;;;;;;;;;;17.60;48.70;;;;;;1530553;76;787;-60
2023/12/02 01:21:46;;;;;;;;;;;17.70;48.80;;;;;;1546484;75;1608;-59
2023/12/02 01:23:48;;;;;;;;;;;17.70;48.80;;;;;;1542175;75;1114;-58
2023/12/02 01:25:49;;;;;;;;;;;17.70;48.80;;;;;;1548326;75;737;-60
2023/12/02 01:27:51;;;;;;;;;;;17.70;48.80;;;;;;1557635;75;769;-59
2023/12/02 01:29:53;;;;;;;;;;;17.70;48.70;;;;;;1549187;75;760;-59
2023/12/02 01:31:55;;;;;;;;;;;17.70;48.80;;;;;;1523973;76;738;-59
2023/12/02 01:33:57;;;;;;;;;;;17.70;48.70;;;;;;1555086;75;1114;-58
2023/12/02 01:35:59;;;;;;;;;;;17.70;48.70;;;;;;1530729;76;1953;-60
2023/12/02 01:38:01;;;;;;;;;;;17.70;48.70;;;;;;1550027;75;752;-59
2023/12/02 01:40:03;;;;;;;;;;;17.70;48.70;;;;;;1553531;75;712;-59
2023/12/02 01:42:05;;;;;;;;;;;17.70;48.70;;;;;;1545087;75;710;-59
2023/12/02 01:44:07;;;;;;;;;;;17.70;48.80;;;;;;1547021;75;1082;-57
2023/12/02 01:46:09;;;;;;;;;;;17.70;48.70;;;;;;1543806;75;615;-60
2023/12/02 01:48:10;;;;;;;;;;;17.70;48.80;;;;;;1555230;75;667;-60
2023/12/02 01:50:12;;;;;;;;;;;17.70;48.70;;;;;;1553934;75;1710;-61
2023/12/02 01:52:14;;;;;;;;;;;17.70;48.70;;;;;;1548806;74;1131;-57
2023/12/02 01:54:17;;;;;;;;;;;17.80;48.70;;;;;;1531268;76;722;-58
2023/12/02 01:56:19;;;;;;;;;;;17.70;48.60;;;;;;1554810;75;1939;-59
2023/12/02 01:58:21;;;;;;;;;;;17.70;48.60;;;;;;1550034;75;735;-59
2023/12/02 02:00:23;;;;;;;;;;;17.70;48.70;;;;;;1560761;75;758;-59
2023/12/02 02:02:25;;;;;;;;;;;17.70;48.60;;;;;;1550247;75;1432;-58
2023/12/02 02:04:27;;;;;;;;;;;17.70;48.70;;;;;;1545745;75;789;-58
2023/12/02 02:06:29;;;;;;;;;;;17.70;48.60;;;;;;1543938;75;677;-59
2023/12/02 02:08:31;;;;;;;;;;;17.80;48.70;;;;;;1546296;75;736;-58
2023/12/02 02:10:33;;;;;;;;;;;17.80;48.70;;;;;;1545951;75;711;-60
2023/12/02 02:12:35;;;;;;;;;;;17.70;48.70;;;;;;1547401;75;1126;-58
2023/12/02 02:14:37;;;;;;;;;;;17.70;48.70;;;;;;1550133;75;800;-59
2023/12/02 02:16:39;;;;;;;;;;;17.70;48.70;;;;;;1538686;75;1925;-58
2023/12/02 02:18:40;;;;;;;;;;;17.80;48.70;;;;;;1538423;76;779;-58
2023/12/02 02:20:43;;;;;;;;;;;17.70;48.70;;;;;;1552746;75;716;-59
2023/12/02 02:22:45;;;;;;;;;;;17.70;48.70;;;;;;1532654;76;1166;-59
2023/12/02 02:24:47;;;;;;;;;;;17.70;48.60;;;;;;1541435;75;736;-59
2023/12/02 02:26:49;;;;;;;;;;;17.70;48.60;;;;;;1552490;75;700;-58
2023/12/02 02:28:50;;;;;;;;;;;17.70;48.70;;;;;;1538547;76;737;-60
2023/12/02 02:30:52;;;;;;;;;;;17.80;48.60;;;;;;1553729;75;1523;-59
2023/12/02 02:32:54;;;;;;;;;;;17.70;48.60;;;;;;1552189;75;1072;-57
2023/12/02 02:34:56;;;;;;;;;;;17.70;48.60;;;;;;1557971;75;757;-59
2023/12/02 02:36:58;;;;;;;;;;;17.70;48.70;;;;;;1544017;76;1935;-59
2023/12/02 02:39:00;;;;;;;;;;;17.70;48.60;;;;;;1555790;75;730;-59
2023/12/02 02:41:02;;;;;;;;;;;17.70;48.60;;;;;;1554985;75;821;-60
2023/12/02 02:43:04;;;;;;;;;;;17.70;48.60;;;;;;1532858;75;1124;-58
2023/12/02 02:45:06;;;;;;;;;;;17.70;48.60;;;;;;1555370;75;1588;-61
2023/12/02 02:47:08;;;;;;;;;;;17.70;48.60;;;;;;1527483;76;734;-62
2023/12/02 02:49:10;;;;;;;;;;;17.70;48.60;;;;;;1542250;75;711;-61
2023/12/02 02:51:12;;;;;;;;;;;17.70;48.70;;;;;;1556063;75;744;-61
2023/12/02 02:53:13;;;;;;;;;;;17.70;48.60;;;;;;1536747;76;1173;-61
2023/12/02 02:55:15;;;;;;;;;;;17.70;48.60;;;;;;1551133;75;780;-62
2023/12/02 02:57:19;;;;;;;;;;;17.70;48.60;;;;;;1538075;76;1928;-60
2023/12/02 02:59:21;;;;;;;;;;;17.70;48.60;;;;;;1554915;75;1551;-59
2023/12/02 03:01:23;;;;;;;;;;;17.70;48.60;;;;;;1549587;75;687;-62
2023/12/02 03:03:25;;;;;;;;;;;17.70;48.60;;;;;;1528356;76;1190;-61
2023/12/02 03:05:26;;;;;;;;;;;17.70;48.60;;;;;;1555451;75;731;-63
2023/12/02 03:07:28;;;;;;;;;;;17.70;48.70;;;;;;1554166;75;796;-61
2023/12/02 03:09:30;;;;;;;;;;;17.70;48.60;;;;;;1539920;76;731;-61
2023/12/02 03:11:32;;;;;;;;;;;17.70;48.60;;;;;;1555924;75;810;-62
2023/12/02 03:13:34;;;;;;;;;;;18.10;48.90;;;;;;1547337;75;1512;-62
2023/12/02 03:15:36;;;;;;;;;;;17.70;48.60;;;;;;1552095;75;801;-61
2023/12/02 03:17:38;;;;;;;;;;;17.70;48.60;;;;;;1554544;75;1925;-62
2023/12/02 03:19:40;;;;;;;;;;;17.70;48.60;;;;;;1552172;75;827;-61
2023/12/02 03:21:42;;;;;;;;;;;17.70;48.60;;;;;;1558775;75;720;-60
2023/12/02 03:23:44;;;;;;;;;;;17.70;48.70;;;;;;1529531;76;1097;-61
2023/12/02 03:25:46;;;;;;;;;;;17.60;48.60;;;;;;1560345;75;680;-61
2023/12/02 03:27:48;;;;;;;;;;;17.70;48.60;;;;;;1554293;75;1487;-63
2023/12/02 03:29:50;;;;;;;;;;;17.70;48.60;;;;;;1549976;75;790;-61
2023/12/02 03:31:52;;;;;;;;;;;17.70;48.60;;;;;;1549096;75;692;-61
2023/12/02 03:33:54;;;;;;;;;;;17.70;48.60;;;;;;1549221;75;1106;-62
2023/12/02 03:35:56;;;;;;;;;;;17.70;48.60;;;;;;1552845;75;618;-62
2023/12/02 03:37:57;;;;;;;;;;;17.70;48.60;;;;;;1556033;75;1943;-61
2023/12/02 03:39:59;;;;;;;;;;;17.70;48.60;;;;;;1532528;76;742;-62
2023/12/02 03:42:01;;;;;;;;;;;17.70;48.60;;;;;;1555439;75;1492;-62
2023/12/02 03:44:03;;;;;;;;;;;17.70;48.60;;;;;;1552082;75;1117;-62
2023/12/02 03:46:05;;;;;;;;;;;17.70;48.60;;;;;;1548301;75;655;-63
2023/12/02 03:48:07;;;;;;;;;;;17.60;48.50;;;;;;1536498;76;734;-61
2023/12/02 03:50:10;;;;;;;;;;;17.60;48.60;;;;;;1547590;75;698;-62
2023/12/02 03:52:12;;;;;;;;;;;17.60;48.60;;;;;;1538987;76;712;-61
2023/12/02 03:54:14;;;;;;;;;;;17.60;48.50;;;;;;1547104;75;1078;-61
2023/12/02 03:56:16;;;;;;;;;;;17.70;48.60;;;;;;1550032;75;1927;-61
2023/12/02 03:58:18;;;;;;;;;;;17.60;48.50;;;;;;1544488;75;765;-61
2023/12/02 04:00:19;;;;;;;;;;;17.70;48.60;;;;;;1550564;75;717;-61
2023/12/02 04:02:22;;;;;;;;;;;17.70;48.60;;;;;;1560137;74;1142;-62
2023/12/02 04:04:24;;;;;;;;;;;17.70;48.60;;;;;;1554143;75;693;-62
2023/12/02 04:06:26;;;;;;;;;;;17.70;48.60;;;;;;1552436;75;740;-62
2023/12/02 04:08:28;;;;;;;;;;;17.70;48.60;;;;;;1531981;76;703;-62
2023/12/02 04:10:30;;;;;;;;;;;17.70;48.60;;;;;;1558011;75;1337;-62
2023/12/02 04:12:33;;;;;;;;;;;17.70;48.60;;;;;;1532434;76;1122;-62
2023/12/02 04:14:35;;;;;;;;;;;17.60;48.50;;;;;;1548530;75;753;-62
2023/12/02 04:16:38;;;;;;;;;;;17.70;48.60;;;;;;1554344;75;1923;-61
2023/12/02 04:18:40;;;;;;;;;;;17.70;48.60;;;;;;1547153;75;696;-61
2023/12/02 04:20:42;;;;;;;;;;;17.60;48.50;;;;;;1558733;75;906;-62
2023/12/02 04:22:44;;;;;;;;;;;17.70;48.60;;;;;;1551504;75;1124;-63
2023/12/02 04:24:46;;;;;;;;;;;17.70;48.60;;;;;;1558126;75;1660;-63
2023/12/02 04:26:48;;;;;;;;;;;17.60;48.50;;;;;;1555066;75;700;-61
2023/12/02 04:28:50;;;;;;;;;;;17.60;48.50;;;;;;1551715;75;678;-61
2023/12/02 04:30:52;;;;;;;;;;;17.70;48.60;;;;;;1550956;75;719;-61
2023/12/02 04:32:54;;;;;;;;;;;17.70;48.60;;;;;;1558333;74;1157;-61
2023/12/02 04:34:56;;;;;;;;;;;17.60;48.50;;;;;;1553080;75;601;-61
2023/12/02 04:36:57;;;;;;;;;;;17.60;48.50;;;;;;1553995;75;1939;-62
2023/12/02 04:38:59;;;;;;;;;;;17.60;48.60;;;;;;1530396;76;1479;-61
2023/12/02 04:41:01;;;;;;;;;;;17.60;48.50;;;;;;1548251;75;657;-61
2023/12/02 04:43:03;;;;;;;;;;;17.70;48.60;;;;;;1552846;75;1157;-61
2023/12/02 04:45:05;;;;;;;;;;;17.70;48.60;;;;;;1550263;75;716;-61
2023/12/02 04:47:07;;;;;;;;;;;17.70;48.60;;;;;;1552080;75;744;-61
2023/12/02 04:49:09;;;;;;;;;;;17.70;48.60;;;;;;1548461;75;728;-61
2023/12/02 04:51:11;;;;;;;;;;;17.60;48.50;;;;;;1532897;76;1519;-63
2023/12/02 04:53:13;;;;;;;;;;;17.60;48.50;;;;;;1551024;75;1101;-61
2023/12/02 04:55:16;;;;;;;;;;;17.60;48.60;;;;;;1565321;75;626;-61
2023/12/02 04:57:18;;;;;;;;;;;17.60;48.60;;;;;;1540566;76;1912;-61
2023/12/02 04:59:20;;;;;;;;;;;17.70;48.60;;;;;;1550103;75;725;-61
2023/12/02 05:01:22;;;;;;;;;;;17.60;48.60;;;;;;1554610;75;790;-61
2023/12/02 05:03:24;;;;;;;;;;;17.60;48.60;;;;;;1541572;75;1123;-61
2023/12/02 05:05:26;;;;;;;;;;;17.70;48.70;;;;;;1554879;75;1347;-61
2023/12/02 05:07:28;;;;;;;;;;;17.70;48.60;;;;;;1554442;75;709;-61
2023/12/02 05:09:29;;;;;;;;;;;17.60;48.60;;;;;;1548698;75;681;-62
2023/12/02 05:11:31;;;;;;;;;;;17.60;48.60;;;;;;1554267;75;747;-61
2023/12/02 05:13:33;;;;;;;;;;;17.60;48.60;;;;;;1530847;76;1178;-62
2023/12/02 05:15:35;;;;;;;;;;;17.60;48.60;;;;;;1562004;75;737;-62
2023/12/02 05:17:37;;;;;;;;;;;17.60;48.60;;;;;;1557898;75;1919;-63
2023/12/02 05:19:39;;;;;;;;;;;17.60;48.60;;;;;;1549711;75;1314;-61
2023/12/02 05:21:41;;;;;;;;;;;17.70;48.70;;;;;;1550978;75;770;-60
2023/12/02 05:23:43;;;;;;;;;;;17.60;48.60;;;;;;1553199;75;1144;-60
2023/12/02 05:25:45;;;;;;;;;;;17.60;48.60;;;;;;1529960;76;642;-61
2023/12/02 05:27:47;;;;;;;;;;;17.60;48.60;;;;;;1549387;75;730;-63
2023/12/02 05:29:49;;;;;;;;;;;17.60;48.60;;;;;;1552824;75;784;-63
2023/12/02 05:31:51;;;;;;;;;;;17.60;48.60;;;;;;1555255;75;690;-61
2023/12/02 05:33:52;;;;;;;;;;;17.60;48.60;;;;;;1553231;75;1536;-61
2023/12/02 05:35:54;;;;;;;;;;;17.70;48.70;;;;;;1553797;75;767;-62
2023/12/02 05:37:56;;;;;;;;;;;17.60;48.60;;;;;;1546755;75;1947;-61
2023/12/02 05:39:58;;;;;;;;;;;17.70;48.70;;;;;;1550952;75;731;-62
2023/12/02 05:42:00;;;;;;;;;;;17.60;48.60;;;;;;1548070;75;624;-61
2023/12/02 05:44:02;;;;;;;;;;;17.60;48.60;;;;;;1532238;76;1122;-62
2023/12/02 05:46:04;;;;;;;;;;;17.70;48.80;;;;;;1552691;75;734;-62
2023/12/02 05:48:06;;;;;;;;;;;17.60;48.60;;;;;;1556795;75;1530;-61
2023/12/02 05:50:08;;;;;;;;;;;17.70;48.60;;;;;;1551712;75;729;-61
2023/12/02 05:52:10;;;;;;;;;;;17.60;48.60;;;;;;1547496;75;742;-60
2023/12/02 05:54:12;;;;;;;;;;;17.60;48.60;;;;;;1549907;75;1114;-61
2023/12/02 05:56:14;;;;;;;;;;;17.60;48.60;;;;;;1547945;75;799;-62
2023/12/02 05:58:16;;;;;;;;;;;17.60;48.60;;;;;;1537610;76;1948;-61
2023/12/02 06:00:18;;;;;;;;;;;17.60;48.60;;;;;;1553530;75;755;-61
2023/12/02 06:02:20;;;;;;;;;;;17.60;48.60;;;;;;1556214;75;1528;-61
2023/12/02 06:04:22;;;;;;;;;;;17.70;48.70;;;;;;1547572;75;654;-61
2023/12/02 06:06:23;;;;;;;;;;;17.70;48.60;;;;;;1550528;75;648;-61
2023/12/02 06:08:25;;;;;;;;;;;17.60;48.50;;;;;;1553368;75;773;-62
2023/12/02 06:10:28;;;;;;;;;;;17.70;48.60;;;;;;1531656;76;734;-61
2023/12/02 06:12:30;;;;;;;;;;;17.70;48.60;;;;;;1549681;75;1183;-61
2023/12/02 06:14:32;;;;;;;;;;;17.70;48.60;;;;;;1558625;75;722;-62
2023/12/02 06:16:35;;;;;;;;;;;17.70;48.60;;;;;;1562337;75;1403;-62
2023/12/02 06:18:38;;;;;;;;;;;17.70;48.70;;;;;;1533120;76;1919;-62
2023/12/02 06:20:40;;;;;;;;;;;17.70;48.60;;;;;;1550143;75;783;-59
2023/12/02 06:22:42;;;;;;;;;;;17.70;48.60;;;;;;1554661;75;1175;-59
2023/12/02 06:24:44;;;;;;;;;;;17.70;48.60;;;;;;1536892;76;739;-59
2023/12/02 06:26:46;;;;;;;;;;;17.70;48.60;;;;;;1550828;75;749;-61
2023/12/02 06:28:49;;;;;;;;;;;17.70;48.60;;;;;;1553552;75;733;-59
2023/12/02 06:30:51;;;;;;;;;;;17.70;48.60;;;;;;1556924;75;1563;-60
2023/12/02 06:32:53;;;;;;;;;;;17.70;48.60;;;;;;1532877;76;1174;-60
2023/12/02 06:34:55;;;;;;;;;;;17.70;48.60;;;;;;1550464;75;676;-59
2023/12/02 06:36:57;;;;;;;;;;;17.70;48.60;;;;;;1557042;75;664;-61
2023/12/02 06:38:59;;;;;;;;;;;17.70;48.60;;;;;;1553430;75;1931;-61
2023/12/02 06:41:00;;;;;;;;;;;17.70;48.60;;;;;;1556510;75;663;-58
2023/12/02 06:43:02;;;;;;;;;;;17.60;48.50;;;;;;1555805;75;1106;-58
2023/12/02 06:45:04;;;;;;;;;;;17.70;48.60;;;;;;1548743;75;1538;-58
2023/12/02 06:47:06;;;;;;;;;;;17.70;48.50;;;;;;1545058;75;776;-60
2023/12/02 06:49:08;;;;;;;;;;;17.70;48.60;;;;;;1549794;75;812;-60
2023/12/02 06:51:10;;;;;;;;;;;17.70;48.50;;;;;;1547199;75;763;-60
2023/12/02 06:53:15;;;;;;;;;;;17.70;48.60;;;;;;1547752;75;1113;-60
2023/12/02 06:55:15;;;;;;;;;;;17.70;48.60;;;;;;1533195;76;1605;-60
2023/12/02 06:57:17;;;;;;;;;;;17.70;48.60;;;;;;1553238;75;1926;-58
2023/12/02 06:59:19;;;;;;;;;;;17.70;48.60;;;;;;1533775;76;1389;-60
2023/12/02 07:01:24;;;;;;;;;;;17.60;48.50;;;;;;1548569;75;692;-58
2023/12/02 07:03:25;;;;;;;;;;;17.70;48.50;;;;;;1550748;75;1182;-57
2023/12/02 07:05:27;;;;;;;;;;;17.70;48.60;;;;;;1548048;75;877;-59
2023/12/02 07:07:29;;;;;;;;;;;17.60;48.50;;;;;;1554965;75;782;-60
2023/12/02 07:09:31;;;;;;;;;;;17.70;48.50;;;;;;1548117;75;685;-59
2023/12/02 07:11:33;;;;;;;;;;;17.70;48.60;;;;;;1545846;75;716;-59
2023/12/02 07:13:35;;;;;;;;;;;17.70;48.60;;;;;;1530810;76;1361;-57
2023/12/02 07:15:37;;;;;;;;;;;17.60;48.50;;;;;;1553235;75;914;-60
2023/12/02 07:17:39;;;;;;;;;;;17.60;48.50;;;;;;1546180;75;1929;-59
2023/12/02 07:19:41;;;;;;;;;;;17.60;48.50;;;;;;1556124;75;673;-58
2023/12/02 07:21:43;;;;;;;;;;;17.70;48.50;;;;;;1554328;75;709;-58
2023/12/02 07:23:44;;;;;;;;;;;17.70;48.60;;;;;;1531742;76;1164;-56
2023/12/02 07:25:46;;;;;;;;;;;17.60;48.40;;;;;;1555885;75;786;-57
2023/12/02 07:27:48;;;;;;;;;;;17.70;48.50;;;;;;1534006;76;1532;-60
2023/12/02 07:29:50;;;;;;;;;;;17.70;48.50;;;;;;1550232;75;748;-61
2023/12/02 07:31:52;;;;;;;;;;;17.70;48.50;;;;;;1538063;76;738;-59
2023/12/02 07:33:54;;;;;;;;;;;17.70;48.50;;;;;;1550101;74;1103;-59
2023/12/02 07:35:56;;;;;;;;;;;17.70;48.50;;;;;;1555109;75;638;-60
2023/12/02 07:37:57;;;;;;;;;;;17.70;48.50;;;;;;1553848;75;1923;-59
2023/12/02 07:39:59;;;;;;;;;;;17.70;48.50;;;;;;1552801;75;1556;-61
2023/12/02 07:42:01;;;;;;;;;;;17.70;48.50;;;;;;1546931;75;727;-59
2023/12/02 07:44:03;;;;;;;;;;;17.70;48.50;;;;;;1555192;74;1111;-59
2023/12/02 07:46:05;;;;;;;;;;;17.70;48.50;;;;;;1528578;76;763;-59
2023/12/02 07:48:07;;;;;;;;;;;17.60;48.40;;;;;;1550420;75;1000;-59
2023/12/02 07:50:10;;;;;;;;;;;17.70;48.50;;;;;;1546309;75;659;-60
2023/12/02 07:52:11;;;;;;;;;;;17.70;48.50;;;;;;1548670;75;677;-60
2023/12/02 07:54:13;;;;;;;;;;;17.70;48.60;;;;;;1546855;75;1547;-59
2023/12/02 07:56:17;;;;;;;;;;;17.70;48.50;;;;;;1557536;75;726;-59
2023/12/02 07:58:19;;;;;;;;;;;17.60;48.40;;;;;;1553550;75;1923;-59
2023/12/02 08:00:21;;;;;;;;;;;17.60;48.50;;;;;;1553992;75;671;-58
2023/12/02 08:02:24;;;;;;;;;;;17.70;48.60;;;;;;1549093;75;1152;-58
2023/12/02 08:04:25;;;;;;;;;;;17.60;48.40;;;;;;1545618;75;733;-60
2023/12/02 08:06:27;;;;;;;;;;;17.60;48.50;;;;;;1532911;76;705;-59
2023/12/02 08:08:29;;;;;;;;;;;17.70;48.50;;;;;;1555633;75;1297;-59
2023/12/02 08:10:31;;;;;;;;;;;17.60;48.50;;;;;;1550678;75;780;-59
2023/12/02 08:12:33;;;;;;;;;;;17.70;48.60;;;;;;1555376;75;1166;-59
2023/12/02 08:14:35;;;;;;;;;;;17.60;48.50;;;;;;1545130;75;783;-60
2023/12/02 08:16:37;;;;;;;;;;;17.60;48.40;;;;;;1549668;75;842;-59
2023/12/02 08:18:39;;;;;;;;;;;17.60;48.40;;;;;;1549181;75;1922;-61
2023/12/02 08:20:41;;;;;;;;;;;17.70;48.50;;;;;;1550378;75;701;-62
2023/12/02 08:22:43;;;;;;;;;;;17.60;48.50;;;;;;1532974;76;1544;-62
2023/12/02 08:24:45;;;;;;;;;;;17.60;48.50;;;;;;1552728;75;835;-61
2023/12/02 08:26:51;;;;;;;;;;;17.60;48.40;;;;;;1548099;75;746;-61
2023/12/02 08:28:50;;;;;;;;;;;17.60;48.40;;;;;;1548508;75;1472;-60
2023/12/02 08:30:52;;;;;;;;;;;17.60;48.50;;;;;;1559601;75;742;-61
2023/12/02 08:32:54;;;;;;;;;;;17.60;48.50;;;;;;1532986;75;1165;-62
2023/12/02 08:34:56;;;;;;;;;;;17.60;48.50;;;;;;1559569;75;697;-62
2023/12/02 08:36:57;;;;;;;;;;;17.70;48.60;;;;;;1561398;75;1404;-61
2023/12/02 08:38:59;;;;;;;;;;;17.70;48.60;;;;;;1532133;76;1936;-63
2023/12/02 08:41:01;;;;;;;;;;;17.60;48.40;;;;;;1556016;75;715;-62
2023/12/02 08:43:03;;;;;;;;;;;17.60;48.40;;;;;;1551310;75;1146;-60
2023/12/02 08:45:06;;;;;;;;;;;17.60;48.50;;;;;;1548690;75;650;-61
2023/12/02 08:47:08;;;;;;;;;;;17.60;48.50;;;;;;1532568;76;675;-62
2023/12/02 08:49:10;;;;;;;;;;;17.60;48.50;;;;;;1549933;75;601;-59
2023/12/02 08:51:12;;;;;;;;;;;17.60;48.50;;;;;;1550893;75;1363;-61
2023/12/02 08:53:14;;;;;;;;;;;17.60;48.50;;;;;;1552654;75;1113;-59
2023/12/02 08:55:15;;;;;;;;;;;17.60;48.50;;;;;;1531038;76;780;-59
2023/12/02 08:57:17;;;;;;;;;;;17.70;48.60;;;;;;1552349;75;774;-60
2023/12/02 08:59:19;;;;;;;;;;;17.70;48.60;;;;;;1549019;75;1953;-59
2023/12/02 09:01:21;;;;;;;;;;;17.60;48.50;;;;;;1551984;75;646;-58
2023/12/02 09:03:23;;;;;;;;;;;17.60;48.50;;;;;;1534972;76;1146;-59
2023/12/02 09:05:25;;;;;;;;;;;17.70;48.60;;;;;;1560426;75;1530;-61
2023/12/02 09:07:27;;;;;;;;;;;17.70;48.60;;;;;;1536700;76;626;-62
2023/12/02 09:09:29;;;;;;;;;;;17.60;48.50;;;;;;1547867;75;729;-62
2023/12/02 09:11:31;;;;;;;;;;;17.70;48.60;;;;;;1547180;75;663;-63
2023/12/02 09:13:35;;;;;;;;;;;17.60;48.50;;;;;;1555052;75;1115;-61
2023/12/02 09:15:38;;;;;;;;;;;17.60;48.50;;;;;;1531366;76;874;-61
2023/12/02 09:17:54;;;;;;;;;;;17.70;48.60;;;;;;1553920;75;1824;-61
2023/12/02 09:19:56;;;;;;;;;;;17.60;48.50;;;;;;1548422;75;1951;-61
2023/12/02 09:21:58;;;;;;;;;;;17.70;48.50;;;;;;1547493;75;702;-61
2023/12/02 09:23:59;;;;;;;;;;;17.70;48.60;;;;;;1551517;74;1134;-61
2023/12/02 09:26:04;;;;;;;;;;;17.70;48.60;;;;;;1555012;75;686;-62
2023/12/02 09:28:08;;;;;;;;;;;17.60;48.50;;;;;;1559522;75;763;-61
2023/12/02 09:30:11;;;;;;;;;;;17.70;48.50;;;;;;1549170;75;763;-61
2023/12/02 09:32:26;;;;;;;;;;;17.60;48.40;;;;;;1556059;75;732;-62
2023/12/02 09:34:45;;;;;;;;;;;17.70;48.60;;;;;;1556794;75;591;-61
2023/12/02 09:36:46;;;;;;;;;;;17.70;48.50;;;;;;1534873;76;784;-61
2023/12/02 09:38:48;;;;;;;;;;;17.70;48.50;;;;;;1558268;75;1943;-61
2023/12/02 09:41:04;;;;;;;;;;;17.70;48.60;;;;;;1549351;75;675;-62
2023/12/02 09:43:07;;;;;;;;;;;17.60;48.40;;;;;;1547400;75;1153;-61
2023/12/02 09:45:09;;;;;;;;;;;17.70;48.50;;;;;;1538410;75;1656;-62
2023/12/02 09:47:14;;;;;;;;;;;17.70;48.50;;;;;;1538751;76;1503;-61
2023/12/02 09:49:18;;;;;;;;;;;17.70;48.50;;;;;;1552957;75;1273;-61
2023/12/02 09:51:21;;;;;;;;;;;17.70;48.50;;;;;;1548648;75;745;-61
2023/12/02 09:53:27;;;;;;;;;;;17.60;48.40;;;;;;1554033;75;1859;-61
2023/12/02 09:55:41;;;;;;;;;;;17.70;48.40;;;;;;1562011;75;1447;-62
2023/12/02 09:57:53;;;;;;;;;;;17.70;48.40;;;;;;1546779;75;744;-61
2023/12/02 10:00:12;;;;;;;;;;;17.60;48.30;;;;;;1552131;75;1934;-62
2023/12/02 10:02:13;;;;;;;;;;;17.70;48.40;;;;;;1545794;75;1887;-61
2023/12/02 10:04:20;;;;;;;;;;;17.70;48.40;;;;;;1533924;75;1672;-61
2023/12/02 10:06:29;;;;;;;;;;;17.60;48.30;;;;;;1551140;75;751;-60
2023/12/02 10:08:42;;;;;;;;;;;17.70;48.40;;;;;;1554377;75;703;-59
2023/12/02 10:10:46;;;;;;;;;;;17.60;48.30;;;;;;1548593;75;779;-59
2023/12/02 10:12:56;;;;;;;;;;;17.70;48.40;;;;;;1556309;75;1433;-60
2023/12/02 10:15:01;;;;;;;;;;;17.70;48.40;;;;;;1547069;75;1359;-59
2023/12/02 10:17:03;;;;;;;;;;;17.70;48.30;;;;;;1551659;75;774;-58
2023/12/02 10:19:05;;;;;;;;;;;17.60;48.20;;;;;;1545129;75;1915;-61
2023/12/02 10:21:07;;;;;;;;;;;17.70;48.30;;;;;;1558108;75;742;-62
2023/12/02 10:23:10;;;;;;;;;;;17.70;48.30;;;;;;1549324;75;1196;-62
2023/12/02 10:25:17;;;;;;;;;;;17.70;48.40;;;;;;1551163;75;750;-62
2023/12/02 10:27:18;;;;;;;;;;;17.70;48.30;;;;;;1552558;75;1443;-64
2023/12/02 10:29:25;;;;;;;;;;;17.90;48.40;;;;;;1547638;75;1454;-61
2023/12/02 10:31:30;;;;;;;;;;;17.70;48.30;;;;;;1553827;75;902;-59
2023/12/02 10:33:33;;;;;;;;;;;17.70;48.30;;;;;;1531846;76;1150;-59
2023/12/02 10:35:44;;;;;;;;;;;17.70;48.20;;;;;;1549213;75;1844;-59
2023/12/02 10:37:47;;;;;;;;;;;17.60;48.20;;;;;;1551794;75;931;-58
2023/12/02 10:39:51;;;;;;;;;;;17.70;48.30;;;;;;1549198;75;2133;-60
2023/12/02 10:41:54;;;;;;;;;;;17.60;48.30;;;;;;1535867;76;701;-58
2023/12/02 10:43:56;;;;;;;;;;;17.70;48.30;;;;;;1546852;75;1913;-58
2023/12/02 10:45:58;;;;;;;;;;;17.60;48.20;;;;;;1552674;75;723;-59
2023/12/02 10:48:00;;;;;;;;;;;17.70;48.30;;;;;;1557503;75;737;-58
2023/12/02 10:50:02;;;;;;;;;;;17.70;48.20;;;;;;1533231;76;743;-58
2023/12/02 10:52:04;;;;;;;;;;;17.60;48.10;;;;;;1548256;75;687;-59
2023/12/02 10:54:06;;;;;;;;;;;17.70;48.30;;;;;;1547475;75;1125;-58
2023/12/02 10:56:16;;;;;;;;;;;17.70;48.30;;;;;;1560820;75;793;-58
2023/12/02 10:58:12;;;;;;;;;;;17.60;48.10;;;;;;1547410;75;1558;-60
2023/12/02 11:00:16;;;;;;;;;;;17.70;48.20;;;;;;1552263;75;1928;-59
2023/12/02 11:02:20;;;;;;;;;;;17.60;48.10;;;;;;1533302;76;1153;-61
2023/12/02 11:04:25;;;;;;;;;;;17.70;48.20;;;;;;1549387;75;738;-60
2023/12/02 11:06:35;;;;;;;;;;;17.70;48.20;;;;;;1548865;75;606;-59
2023/12/02 11:08:44;;;;;;;;;;;17.60;48.20;;;;;;1555019;75;1958;-59
2023/12/02 11:10:49;;;;;;;;;;;17.70;48.20;;;;;;1539515;75;1681;-60
2023/12/02 11:12:52;;;;;;;;;;;17.60;48.10;;;;;;1549347;75;1630;-60
2023/12/02 11:14:54;;;;;;;;;;;17.60;48.20;;;;;;1549476;75;765;-59
2023/12/02 11:17:06;;;;;;;;;;;17.60;48.20;;;;;;1548798;75;673;-59
2023/12/02 11:19:12;;;;;;;;;;;17.70;48.20;;;;;;1552384;75;1919;-60
2023/12/02 11:21:15;;;;;;;;;;;17.60;48.10;;;;;;1549197;75;760;-59
2023/12/02 11:23:31;;;;;;;;;;;17.60;48.10;;;;;;1552320;75;1709;-59
2023/12/02 11:25:34;;;;;;;;;;;17.60;48.20;;;;;;1548834;75;1581;-59
2023/12/02 11:27:54;;;;;;;;;;;17.60;48.20;;;;;;1546825;75;907;-60
2023/12/02 11:29:58;;;;;;;;;;;17.70;48.30;;;;;;1551462;75;1032;-59
2023/12/02 11:32:04;;;;;;;;;;;17.70;48.30;;;;;;1551188;75;1647;-60
2023/12/02 11:34:10;;;;;;;;;;;17.60;48.20;;;;;;1549251;75;1895;-59
2023/12/02 11:36:17;;;;;;;;;;;17.60;48.10;;;;;;1549264;75;1879;-60
2023/12/02 11:38:19;;;;;;;;;;;17.60;48.10;;;;;;1548866;75;679;-59
2023/12/02 11:40:25;;;;;;;;;;;17.70;48.20;;;;;;1549476;75;1923;-58
2023/12/02 11:42:28;;;;;;;;;;;17.60;48.10;;;;;;1547510;75;1100;-59
2023/12/02 11:44:34;;;;;;;;;;;17.60;48.10;;;;;;1548514;75;691;-61
2023/12/02 11:46:38;;;;;;;;;;;17.70;48.20;;;;;;1556615;75;752;-58
2023/12/02 11:48:59;;;;;;;;;;;17.70;48.30;;;;;;1529903;76;1784;-59
2023/12/02 11:51:08;;;;;;;;;;;17.60;48.10;;;;;;1551836;75;730;-59
2023/12/02 11:53:27;;;;;;;;;;;17.70;48.20;;;;;;1549627;75;1918;-59
2023/12/02 11:55:30;;;;;;;;;;;17.60;48.10;;;;;;1552834;75;795;-59
2023/12/02 11:57:34;;;;;;;;;;;17.70;48.20;;;;;;1529559;76;671;-60
2023/12/02 11:59:37;;;;;;;;;;;17.70;48.20;;;;;;1553524;75;1946;-59
2023/12/02 12:01:44;;;;;;;;;;;17.60;48.10;;;;;;1546725;75;1012;-59
2023/12/02 12:03:47;;;;;;;;;;;17.70;48.30;;;;;;1543317;75;1944;-60
2023/12/02 12:06:00;;;;;;;;;;;17.70;48.30;;;;;;1549988;75;1900;-59
2023/12/02 12:08:06;;;;;;;;;;;17.60;48.20;;;;;;1551799;75;1895;-59
2023/12/02 12:10:13;;;;;;;;;;;17.70;48.20;;;;;;1547629;75;697;-60
2023/12/02 12:12:15;;;;;;;;;;;17.70;48.30;;;;;;1549275;75;740;-59